sensor_id;sensor_type;location;lat;lon;timestamp;pressure;altitude;pressure_sealevel;temperature;humidity
49367;BME280;35245;52.026;8.540;2023-02-10T00:01:16;50965.13;;;-145.42;53.01
49367;BME280;35245;52.026;8.540;2023-02-10T00:03:44;50963.13;;;-145.42;53.00
49367;BME280;35245;52.026;8.540;2023-02-10T00:06:12;50979.00;;;-145.42;53.84
49367;BME280;35245;52.026;8.540;2023-02-10T00:08:40;50965.13;;;-145.42;53.71
49367;BME280;35245;52.026;8.540;2023-02-10T00:11:10;50967.09;;;-145.42;54.31
49367;BME280;35245;52.026;8.540;2023-02-10T00:13:39;50980.97;;;-145.42;53.31
49367;BME280;35245;52.026;8.540;2023-02-10T00:16:10;50975.03;;;-145.42;53.44
49367;BME280;35245;52.026;8.540;2023-02-10T00:18:39;50959.16;;;-145.42;53.30
49367;BME280;35245;52.026;8.540;2023-02-10T00:21:08;50963.13;;;-145.42;54.27
49367;BME280;35245;52.026;8.540;2023-02-10T00:23:36;50977.00;;;-145.42;54.26
49367;BME280;35245;52.026;8.540;2023-02-10T00:26:04;50982.97;;;-145.42;53.23
49367;BME280;35245;52.026;8.540;2023-02-10T00:28:33;50955.22;;;-145.42;53.67
49367;BME280;35245;52.026;8.540;2023-02-10T00:31:07;50973.03;;;-145.42;53.72
49367;BME280;35245;52.026;8.540;2023-02-10T00:33:34;51000.78;;;-145.42;53.82
49367;BME280;35245;52.026;8.540;2023-02-10T00:36:04;51002.78;;;-145.42;53.82
49367;BME280;35245;52.026;8.540;2023-02-10T00:38:31;50984.94;;;-145.42;54.37
49367;BME280;35245;52.026;8.540;2023-02-10T00:41:02;50973.03;;;-145.42;54.30
49367;BME280;35245;52.026;8.540;2023-02-10T00:43:30;50984.94;;;-145.42;54.56
49367;BME280;35245;52.026;8.540;2023-02-10T00:45:58;50977.00;;;-145.42;53.96
49367;BME280;35245;52.026;8.540;2023-02-10T00:48:27;50988.91;;;-145.42;54.03
49367;BME280;35245;52.026;8.540;2023-02-10T00:50:54;50980.97;;;-145.42;54.54
49367;BME280;35245;52.026;8.540;2023-02-10T00:53:21;50990.88;;;-145.42;53.63
49367;BME280;35245;52.026;8.540;2023-02-10T00:55:49;50973.03;;;-145.42;53.70
49367;BME280;35245;52.026;8.540;2023-02-10T00:58:16;50988.91;;;-145.42;53.93
49367;BME280;35245;52.026;8.540;2023-02-10T01:00:43;50967.09;;;-145.42;54.04
49367;BME280;35245;52.026;8.540;2023-02-10T01:03:10;50971.06;;;-145.42;53.70
49367;BME280;35245;52.026;8.540;2023-02-10T01:05:39;50980.97;;;-145.42;54.10
49367;BME280;35245;52.026;8.540;2023-02-10T01:08:07;50977.00;;;-145.42;54.42
49367;BME280;35245;52.026;8.540;2023-02-10T01:10:35;50988.91;;;-145.42;54.03
49367;BME280;35245;52.026;8.540;2023-02-10T01:13:02;50986.91;;;-145.42;53.80
49367;BME280;35245;52.026;8.540;2023-02-10T01:15:30;50971.06;;;-145.42;53.88
49367;BME280;35245;52.026;8.540;2023-02-10T01:17:58;50977.00;;;-145.42;54.68
49367;BME280;35245;52.026;8.540;2023-02-10T01:20:25;50996.84;;;-145.42;54.54
49367;BME280;35245;52.026;8.540;2023-02-10T01:22:54;50982.97;;;-145.42;54.53
49367;BME280;35245;52.026;8.540;2023-02-10T01:25:21;50984.94;;;-145.42;55.08
49367;BME280;35245;52.026;8.540;2023-02-10T01:27:49;50980.97;;;-145.42;54.92
49367;BME280;35245;52.026;8.540;2023-02-10T01:30:16;50975.03;;;-145.42;54.36
49367;BME280;35245;52.026;8.540;2023-02-10T01:32:43;50990.88;;;-145.42;54.36
49367;BME280;35245;52.026;8.540;2023-02-10T01:35:10;50977.00;;;-145.42;55.01
49367;BME280;35245;52.026;8.540;2023-02-10T01:37:37;50971.06;;;-145.42;54.79
49367;BME280;35245;52.026;8.540;2023-02-10T01:40:09;50992.88;;;-145.42;55.77
49367;BME280;35245;52.026;8.540;2023-02-10T01:42:36;50979.00;;;-145.42;56.94
49367;BME280;35245;52.026;8.540;2023-02-10T01:45:20;50977.00;;;-145.42;57.47
49367;BME280;35245;52.026;8.540;2023-02-10T01:47:51;50975.03;;;-145.42;57.60
49367;BME280;35245;52.026;8.540;2023-02-10T01:50:23;50971.06;;;-145.42;57.26
49367;BME280;35245;52.026;8.540;2023-02-10T01:52:52;50986.91;;;-145.42;58.64
49367;BME280;35245;52.026;8.540;2023-02-10T01:55:25;50969.06;;;-145.42;60.13
49367;BME280;35245;52.026;8.540;2023-02-10T01:57:54;50955.22;;;-145.42;60.58
49367;BME280;35245;52.026;8.540;2023-02-10T02:00:23;50977.00;;;-145.42;60.31
49367;BME280;35245;52.026;8.540;2023-02-10T02:02:51;50990.88;;;-145.42;61.30
49367;BME280;35245;52.026;8.540;2023-02-10T02:05:30;50973.03;;;-145.42;61.34
49367;BME280;35245;52.026;8.540;2023-02-10T02:08:03;50984.94;;;-145.42;62.10
49367;BME280;35245;52.026;8.540;2023-02-10T02:10:57;50963.13;;;-145.42;63.25
49367;BME280;35245;52.026;8.540;2023-02-10T02:13:40;50973.03;;;-145.42;62.95
49367;BME280;35245;52.026;8.540;2023-02-10T02:16:19;50986.91;;;-145.42;62.34
49367;BME280;35245;52.026;8.540;2023-02-10T02:18:55;50973.03;;;-145.42;63.59
49367;BME280;35245;52.026;8.540;2023-02-10T02:22:04;50957.19;;;-145.42;65.15
49367;BME280;35245;52.026;8.540;2023-02-10T02:25:07;50955.22;;;-145.42;67.02
49367;BME280;35245;52.026;8.540;2023-02-10T02:31:42;50971.06;;;-145.42;68.12
49367;BME280;35245;52.026;8.540;2023-02-10T02:34:17;50969.06;;;-145.42;67.27
49367;BME280;35245;52.026;8.540;2023-02-10T02:36:50;50998.81;;;-145.42;67.69
49367;BME280;35245;52.026;8.540;2023-02-10T02:39:19;50990.88;;;-145.42;68.85
49367;BME280;35245;52.026;8.540;2023-02-10T02:42:19;50980.97;;;-145.42;69.45
49367;BME280;35245;52.026;8.540;2023-02-10T02:44:51;50977.00;;;-145.42;70.26
49367;BME280;35245;52.026;8.540;2023-02-10T02:47:36;50975.03;;;-145.42;68.50
49367;BME280;35245;52.026;8.540;2023-02-10T02:50:21;50984.94;;;-145.42;69.75
49367;BME280;35245;52.026;8.540;2023-02-10T02:53:09;50998.81;;;-145.42;70.86
49367;BME280;35245;52.026;8.540;2023-02-10T02:55:52;50977.00;;;-145.42;70.70
49367;BME280;35245;52.026;8.540;2023-02-10T02:58:35;50986.91;;;-145.42;70.43
49367;BME280;35245;52.026;8.540;2023-02-10T03:01:12;50980.97;;;-145.42;71.15
49367;BME280;35245;52.026;8.540;2023-02-10T03:03:42;50963.13;;;-145.42;71.46
49367;BME280;35245;52.026;8.540;2023-02-10T03:06:09;50988.91;;;-145.42;70.81
49367;BME280;35245;52.026;8.540;2023-02-10T03:08:39;50951.25;;;-145.42;70.88
49367;BME280;35245;52.026;8.540;2023-02-10T03:11:07;50965.13;;;-145.42;72.37
49367;BME280;35245;52.026;8.540;2023-02-10T03:13:34;50980.97;;;-145.42;76.39
49367;BME280;35245;52.026;8.540;2023-02-10T03:16:02;50955.22;;;-145.42;76.88
49367;BME280;35245;52.026;8.540;2023-02-10T03:18:29;50973.03;;;-145.42;74.61
49367;BME280;35245;52.026;8.540;2023-02-10T03:20:58;50998.81;;;-145.42;75.13
49367;BME280;35245;52.026;8.540;2023-02-10T03:23:25;50941.31;;;-145.42;77.33
49367;BME280;35245;52.026;8.540;2023-02-10T03:25:52;50963.13;;;-145.42;77.72
49367;BME280;35245;52.026;8.540;2023-02-10T03:28:19;50982.97;;;-145.42;76.71
49367;BME280;35245;52.026;8.540;2023-02-10T03:30:47;50941.31;;;-145.42;77.53
49367;BME280;35245;52.026;8.540;2023-02-10T03:33:15;50967.09;;;-145.42;77.65
49367;BME280;35245;52.026;8.540;2023-02-10T03:35:43;50961.16;;;-145.42;77.76
49367;BME280;35245;52.026;8.540;2023-02-10T03:38:12;50951.25;;;-145.42;79.21
49367;BME280;35245;52.026;8.540;2023-02-10T03:40:40;50994.84;;;-145.42;79.15
49367;BME280;35245;52.026;8.540;2023-02-10T03:43:07;50947.28;;;-145.42;78.93
49367;BME280;35245;52.026;8.540;2023-02-10T03:45:34;50982.97;;;-145.42;80.20
49367;BME280;35245;52.026;8.540;2023-02-10T03:48:02;50973.03;;;-145.42;80.26
49367;BME280;35245;52.026;8.540;2023-02-10T03:50:29;50969.06;;;-145.42;81.60
49367;BME280;35245;52.026;8.540;2023-02-10T03:52:56;50963.13;;;-145.42;82.38
49367;BME280;35245;52.026;8.540;2023-02-10T03:55:25;50951.25;;;-145.42;83.24
49367;BME280;35245;52.026;8.540;2023-02-10T03:57:52;50967.09;;;-145.42;84.15
49367;BME280;35245;52.026;8.540;2023-02-10T04:00:19;50965.13;;;-145.42;83.29
49367;BME280;35245;52.026;8.540;2023-02-10T04:02:47;50980.97;;;-145.42;85.99
49367;BME280;35245;52.026;8.540;2023-02-10T04:05:14;50953.22;;;-145.42;84.29
49367;BME280;35245;52.026;8.540;2023-02-10T04:07:41;50947.28;;;-145.42;85.12
49367;BME280;35245;52.026;8.540;2023-02-10T04:10:08;50919.53;;;-145.42;86.89
49367;BME280;35245;52.026;8.540;2023-02-10T04:12:37;50982.97;;;-145.42;86.84
49367;BME280;35245;52.026;8.540;2023-02-10T04:15:06;50977.00;;;-145.42;87.42
49367;BME280;35245;52.026;8.540;2023-02-10T04:17:33;50975.03;;;-145.42;86.71
49367;BME280;35245;52.026;8.540;2023-02-10T04:20:01;50953.22;;;-145.42;87.44
49367;BME280;35245;52.026;8.540;2023-02-10T04:22:28;50949.25;;;-145.42;87.92
49367;BME280;35245;52.026;8.540;2023-02-10T04:24:55;50947.28;;;-145.42;89.09
49367;BME280;35245;52.026;8.540;2023-02-10T04:27:23;50945.28;;;-145.42;88.82
49367;BME280;35245;52.026;8.540;2023-02-10T04:29:51;50961.16;;;-145.42;88.67
49367;BME280;35245;52.026;8.540;2023-02-10T04:32:18;50971.06;;;-145.42;89.78
49367;BME280;35245;52.026;8.540;2023-02-10T04:34:45;50963.13;;;-145.42;88.99
49367;BME280;35245;52.026;8.540;2023-02-10T04:37:13;50961.16;;;-145.42;92.41
49367;BME280;35245;52.026;8.540;2023-02-10T04:39:40;50980.97;;;-145.42;92.20
49367;BME280;35245;52.026;8.540;2023-02-10T04:42:07;50971.06;;;-145.42;93.00
49367;BME280;35245;52.026;8.540;2023-02-10T04:44:35;50971.06;;;-145.42;94.44
49367;BME280;35245;52.026;8.540;2023-02-10T04:47:03;50959.16;;;-145.42;93.25
49367;BME280;35245;52.026;8.540;2023-02-10T04:49:31;50951.25;;;-145.42;93.42
49367;BME280;35245;52.026;8.540;2023-02-10T04:51:58;50937.38;;;-145.42;97.32
49367;BME280;35245;52.026;8.540;2023-02-10T04:54:25;50957.19;;;-145.42;95.12
49367;BME280;35245;52.026;8.540;2023-02-10T04:56:52;50955.22;;;-145.42;93.46
49367;BME280;35245;52.026;8.540;2023-02-10T04:59:19;50939.34;;;-145.42;95.29
49367;BME280;35245;52.026;8.540;2023-02-10T05:01:46;50949.25;;;-145.42;95.96
49367;BME280;35245;52.026;8.540;2023-02-10T05:04:15;50967.09;;;-145.42;96.54
49367;BME280;35245;52.026;8.540;2023-02-10T05:06:42;50969.06;;;-145.42;98.72
49367;BME280;35245;52.026;8.540;2023-02-10T05:09:09;50963.13;;;-145.42;98.21
49367;BME280;35245;52.026;8.540;2023-02-10T05:11:36;50947.28;;;-145.42;97.73
49367;BME280;35245;52.026;8.540;2023-02-10T05:14:05;50961.16;;;-145.42;96.60
49367;BME280;35245;52.026;8.540;2023-02-10T05:16:32;50957.19;;;-145.42;96.32
49367;BME280;35245;52.026;8.540;2023-02-10T05:18:59;50959.16;;;-145.42;98.23
49367;BME280;35245;52.026;8.540;2023-02-10T05:21:28;50961.16;;;-145.42;97.80
49367;BME280;35245;52.026;8.540;2023-02-10T05:23:57;50969.06;;;-145.42;98.70
49367;BME280;35245;52.026;8.540;2023-02-10T05:26:24;50973.03;;;-145.42;97.32
49367;BME280;35245;52.026;8.540;2023-02-10T05:28:52;50973.03;;;-145.42;97.97
49367;BME280;35245;52.026;8.540;2023-02-10T05:31:19;50957.19;;;-145.42;96.28
49367;BME280;35245;52.026;8.540;2023-02-10T05:33:46;50947.28;;;-145.42;96.24
49367;BME280;35245;52.026;8.540;2023-02-10T05:36:13;50959.16;;;-145.42;97.24
49367;BME280;35245;52.026;8.540;2023-02-10T05:38:42;50937.38;;;-145.42;96.09
49367;BME280;35245;52.026;8.540;2023-02-10T05:41:30;50951.25;;;-145.42;96.60
49367;BME280;35245;52.026;8.540;2023-02-10T05:43:57;50957.19;;;-145.42;97.07
49367;BME280;35245;52.026;8.540;2023-02-10T05:46:24;50975.03;;;-145.42;97.85
49367;BME280;35245;52.026;8.540;2023-02-10T05:48:51;50982.97;;;-145.42;96.45
49367;BME280;35245;52.026;8.540;2023-02-10T05:51:18;50975.03;;;-145.42;96.09
49367;BME280;35245;52.026;8.540;2023-02-10T05:53:47;50967.09;;;-145.42;95.88
49367;BME280;35245;52.026;8.540;2023-02-10T05:56:14;50988.91;;;-145.42;95.34
49367;BME280;35245;52.026;8.540;2023-02-10T05:58:41;50937.38;;;-145.42;97.05
49367;BME280;35245;52.026;8.540;2023-02-10T06:01:10;50959.16;;;-145.42;98.72
49367;BME280;35245;52.026;8.540;2023-02-10T06:03:37;50949.25;;;-145.42;98.19
49367;BME280;35245;52.026;8.540;2023-02-10T06:06:05;50947.28;;;-145.42;100.00
49367;BME280;35245;52.026;8.540;2023-02-10T06:08:32;50943.31;;;-145.42;99.79
49367;BME280;35245;52.026;8.540;2023-02-10T06:11:01;50961.16;;;-145.42;100.00
49367;BME280;35245;52.026;8.540;2023-02-10T06:13:28;50947.28;;;-145.42;100.00
49367;BME280;35245;52.026;8.540;2023-02-10T06:15:55;50945.28;;;-145.42;100.00
49367;BME280;35245;52.026;8.540;2023-02-10T06:18:22;50965.13;;;-145.42;99.21
49367;BME280;35245;52.026;8.540;2023-02-10T06:20:50;50963.13;;;-145.42;98.38
49367;BME280;35245;52.026;8.540;2023-02-10T06:23:17;50963.13;;;-145.42;100.00
49367;BME280;35245;52.026;8.540;2023-02-10T06:25:45;50963.13;;;-145.42;100.00
49367;BME280;35245;52.026;8.540;2023-02-10T06:28:14;50967.09;;;-145.42;100.00
49367;BME280;35245;52.026;8.540;2023-02-10T06:30:41;50961.16;;;-145.42;100.00
49367;BME280;35245;52.026;8.540;2023-02-10T06:33:08;50961.16;;;-145.42;100.00
49367;BME280;35245;52.026;8.540;2023-02-10T06:35:36;50953.22;;;-145.42;100.00
49367;BME280;35245;52.026;8.540;2023-02-10T06:38:03;50953.22;;;-145.42;98.12
49367;BME280;35245;52.026;8.540;2023-02-10T06:40:30;50965.13;;;-145.42;96.59
49367;BME280;35245;52.026;8.540;2023-02-10T06:42:57;50990.88;;;-145.42;94.75
49367;BME280;35245;52.026;8.540;2023-02-10T06:45:28;50947.28;;;-145.42;96.01
49367;BME280;35245;52.026;8.540;2023-02-10T06:47:56;50961.16;;;-145.42;96.10
49367;BME280;35245;52.026;8.540;2023-02-10T06:50:23;50955.22;;;-145.42;93.27
49367;BME280;35245;52.026;8.540;2023-02-10T06:52:50;50963.13;;;-145.42;94.17
49367;BME280;35245;52.026;8.540;2023-02-10T06:55:18;50965.13;;;-145.42;95.18
49367;BME280;35245;52.026;8.540;2023-02-10T06:57:45;50957.19;;;-145.42;95.02
49367;BME280;35245;52.026;8.540;2023-02-10T07:00:14;50984.94;;;-145.42;94.58
49367;BME280;35245;52.026;8.540;2023-02-10T07:02:43;50977.00;;;-145.42;94.75
49367;BME280;35245;52.026;8.540;2023-02-10T07:05:11;50951.25;;;-145.42;95.60
49367;BME280;35245;52.026;8.540;2023-02-10T07:07:38;50969.06;;;-145.42;98.30
49367;BME280;35245;52.026;8.540;2023-02-10T07:10:07;50973.03;;;-145.42;96.69
49367;BME280;35245;52.026;8.540;2023-02-10T07:12:35;50977.00;;;-145.42;96.57
49367;BME280;35245;52.026;8.540;2023-02-10T07:15:03;50982.97;;;-145.42;96.96
49367;BME280;35245;52.026;8.540;2023-02-10T07:17:30;50986.91;;;-145.42;95.73
49367;BME280;35245;52.026;8.540;2023-02-10T07:19:59;51000.78;;;-145.42;97.11
49367;BME280;35245;52.026;8.540;2023-02-10T07:22:26;50969.06;;;-145.42;95.43
49367;BME280;35245;52.026;8.540;2023-02-10T07:24:53;50967.09;;;-145.42;95.05
49367;BME280;35245;52.026;8.540;2023-02-10T07:27:21;50963.13;;;-145.42;95.14
49367;BME280;35245;52.026;8.540;2023-02-10T07:29:48;50986.91;;;-145.42;97.19
49367;BME280;35245;52.026;8.540;2023-02-10T07:32:15;50965.13;;;-145.42;93.17
49367;BME280;35245;52.026;8.540;2023-02-10T07:34:42;50980.97;;;-145.42;92.95
49367;BME280;35245;52.026;8.540;2023-02-10T07:37:11;50979.00;;;-145.42;97.05
49367;BME280;35245;52.026;8.540;2023-02-10T07:39:38;50971.06;;;-145.42;98.79
49367;BME280;35245;52.026;8.540;2023-02-10T07:42:05;50961.16;;;-145.42;96.69
49367;BME280;35245;52.026;8.540;2023-02-10T07:44:32;50957.19;;;-145.42;100.00
49367;BME280;35245;52.026;8.540;2023-02-10T07:47:00;50963.13;;;-145.42;100.00
49367;BME280;35245;52.026;8.540;2023-02-10T07:49:27;50971.06;;;-145.42;100.00
49367;BME280;35245;52.026;8.540;2023-02-10T07:51:54;50990.88;;;-145.42;99.61
49367;BME280;35245;52.026;8.540;2023-02-10T07:54:23;50971.06;;;-145.42;100.00
49367;BME280;35245;52.026;8.540;2023-02-10T07:56:50;50965.13;;;-145.42;100.00
49367;BME280;35245;52.026;8.540;2023-02-10T07:59:17;50971.06;;;-145.42;100.00
49367;BME280;35245;52.026;8.540;2023-02-10T08:01:44;50973.03;;;-145.42;100.00
49367;BME280;35245;52.026;8.540;2023-02-10T08:04:12;50955.22;;;-145.42;100.00
49367;BME280;35245;52.026;8.540;2023-02-10T08:06:39;50943.31;;;-145.42;100.00
49367;BME280;35245;52.026;8.540;2023-02-10T08:09:07;50945.28;;;-145.42;100.00
49367;BME280;35245;52.026;8.540;2023-02-10T08:11:36;50965.13;;;-145.42;100.00
49367;BME280;35245;52.026;8.540;2023-02-10T08:14:03;50977.00;;;-145.42;98.76
49367;BME280;35245;52.026;8.540;2023-02-10T08:16:31;50935.38;;;-145.42;98.24
49367;BME280;35245;52.026;8.540;2023-02-10T08:18:58;50953.22;;;-145.42;98.38
49367;BME280;35245;52.026;8.540;2023-02-10T08:21:25;50986.91;;;-145.42;96.40
49367;BME280;35245;52.026;8.540;2023-02-10T08:23:53;50971.06;;;-145.42;97.68
49367;BME280;35245;52.026;8.540;2023-02-10T08:26:23;50977.00;;;-145.42;98.67
49367;BME280;35245;52.026;8.540;2023-02-10T08:28:52;50971.06;;;-145.42;97.67
49367;BME280;35245;52.026;8.540;2023-02-10T08:31:21;50980.97;;;-145.42;95.61
49367;BME280;35245;52.026;8.540;2023-02-10T08:33:48;50959.16;;;-145.42;95.57
49367;BME280;35245;52.026;8.540;2023-02-10T08:36:18;50959.16;;;-145.42;95.50
49367;BME280;35245;52.026;8.540;2023-02-10T08:38:48;50951.25;;;-145.42;94.34
49367;BME280;35245;52.026;8.540;2023-02-10T08:41:16;50977.00;;;-145.42;95.92
49367;BME280;35245;52.026;8.540;2023-02-10T08:43:43;50939.34;;;-145.42;95.47
49367;BME280;35245;52.026;8.540;2023-02-10T08:46:12;50994.84;;;-145.42;95.79
49367;BME280;35245;52.026;8.540;2023-02-10T08:48:40;50945.28;;;-145.42;99.32
49367;BME280;35245;52.026;8.540;2023-02-10T08:51:09;50949.25;;;-145.42;97.44
49367;BME280;35245;52.026;8.540;2023-02-10T08:53:37;50945.28;;;-145.42;100.00
49367;BME280;35245;52.026;8.540;2023-02-10T08:56:06;50967.09;;;-145.42;100.00
49367;BME280;35245;52.026;8.540;2023-02-10T08:58:34;50951.25;;;-145.42;97.57
49367;BME280;35245;52.026;8.540;2023-02-10T09:01:08;50951.25;;;-145.42;99.13
49367;BME280;35245;52.026;8.540;2023-02-10T09:03:38;50980.97;;;-145.42;97.95
49367;BME280;35245;52.026;8.540;2023-02-10T09:06:05;50959.16;;;-145.42;97.74
49367;BME280;35245;52.026;8.540;2023-02-10T09:08:38;50957.19;;;-145.42;96.78
49367;BME280;35245;52.026;8.540;2023-02-10T09:11:07;50975.03;;;-145.42;95.92
49367;BME280;35245;52.026;8.540;2023-02-10T09:13:34;50957.19;;;-145.42;97.33
49367;BME280;35245;52.026;8.540;2023-02-10T09:16:01;50949.25;;;-145.42;99.43
49367;BME280;35245;52.026;8.540;2023-02-10T09:18:29;50955.22;;;-145.42;100.00
49367;BME280;35245;52.026;8.540;2023-02-10T09:20:58;50992.88;;;-145.42;100.00
49367;BME280;35245;52.026;8.540;2023-02-10T09:23:26;50961.16;;;-145.42;100.00
49367;BME280;35245;52.026;8.540;2023-02-10T09:25:54;50971.06;;;-145.42;100.00
49367;BME280;35245;52.026;8.540;2023-02-10T09:28:21;50959.16;;;-145.42;100.00
49367;BME280;35245;52.026;8.540;2023-02-10T09:30:48;50961.16;;;-145.42;100.00
49367;BME280;35245;52.026;8.540;2023-02-10T09:33:16;50945.28;;;-145.42;100.00
49367;BME280;35245;52.026;8.540;2023-02-10T09:35:43;50992.88;;;-145.42;100.00
49367;BME280;35245;52.026;8.540;2023-02-10T09:38:13;50953.22;;;-145.42;99.89
49367;BME280;35245;52.026;8.540;2023-02-10T09:40:51;50957.19;;;-145.42;100.00
49367;BME280;35245;52.026;8.540;2023-02-10T09:43:45;50951.25;;;-145.42;99.36
49367;BME280;35245;52.026;8.540;2023-02-10T09:46:24;50990.88;;;-145.42;100.00
49367;BME280;35245;52.026;8.540;2023-02-10T09:49:08;50953.22;;;-145.42;99.29
49367;BME280;35245;52.026;8.540;2023-02-10T09:51:49;50945.28;;;-145.42;95.99
49367;BME280;35245;52.026;8.540;2023-02-10T09:54:20;50951.25;;;-145.42;93.80
49367;BME280;35245;52.026;8.540;2023-02-10T09:56:47;50963.13;;;-145.42;92.37
49367;BME280;35245;52.026;8.540;2023-02-10T09:59:19;50988.91;;;-145.42;91.28
49367;BME280;35245;52.026;8.540;2023-02-10T10:01:50;50963.13;;;-145.42;91.63
49367;BME280;35245;52.026;8.540;2023-02-10T10:04:20;50975.03;;;-145.42;92.20
49367;BME280;35245;52.026;8.540;2023-02-10T10:06:51;50975.03;;;-145.42;90.52
49367;BME280;35245;52.026;8.540;2023-02-10T10:09:26;50959.16;;;-145.42;91.67
49367;BME280;35245;52.026;8.540;2023-02-10T10:11:58;50980.97;;;-145.42;90.19
49367;BME280;35245;52.026;8.540;2023-02-10T10:14:27;50951.25;;;-145.42;90.81
49367;BME280;35245;52.026;8.540;2023-02-10T10:20:26;50986.91;;;-145.42;87.55
49367;BME280;35245;52.026;8.540;2023-02-10T10:23:06;50988.91;;;-145.42;88.97
49367;BME280;35245;52.026;8.540;2023-02-10T10:25:59;50973.03;;;-145.42;87.96
49367;BME280;35245;52.026;8.540;2023-02-10T10:28:46;50986.91;;;-145.42;88.15
49367;BME280;35245;52.026;8.540;2023-02-10T10:31:19;50984.94;;;-145.42;89.58
49367;BME280;35245;52.026;8.540;2023-02-10T10:33:52;50973.03;;;-145.42;87.51
49367;BME280;35245;52.026;8.540;2023-02-10T10:36:27;50998.81;;;-145.42;90.33
49367;BME280;35245;52.026;8.540;2023-02-10T10:39:03;50982.97;;;-145.42;88.09
49367;BME280;35245;52.026;8.540;2023-02-10T10:41:38;50994.84;;;-145.42;85.83
49367;BME280;35245;52.026;8.540;2023-02-10T10:44:09;50980.97;;;-145.42;84.66
49367;BME280;35245;52.026;8.540;2023-02-10T10:46:42;50959.16;;;-145.42;84.41
49367;BME280;35245;52.026;8.540;2023-02-10T10:49:12;50973.03;;;-145.42;84.50
49367;BME280;35245;52.026;8.540;2023-02-10T10:51:40;50984.94;;;-145.42;83.42
49367;BME280;35245;52.026;8.540;2023-02-10T10:54:14;50959.16;;;-145.42;83.63
49367;BME280;35245;52.026;8.540;2023-02-10T10:56:48;50977.00;;;-145.42;85.26
49367;BME280;35245;52.026;8.540;2023-02-10T10:59:20;50979.00;;;-145.42;82.98
49367;BME280;35245;52.026;8.540;2023-02-10T11:01:49;50982.97;;;-145.42;82.94
49367;BME280;35245;52.026;8.540;2023-02-10T11:04:20;50980.97;;;-145.42;82.29
49367;BME280;35245;52.026;8.540;2023-02-10T11:06:53;50986.91;;;-145.42;82.50
49367;BME280;35245;52.026;8.540;2023-02-10T11:09:26;50980.97;;;-145.42;82.63
49367;BME280;35245;52.026;8.540;2023-02-10T11:12:02;50971.06;;;-145.42;85.44
49367;BME280;35245;52.026;8.540;2023-02-10T11:14:37;50982.97;;;-145.42;85.59
49367;BME280;35245;52.026;8.540;2023-02-10T11:17:19;50988.91;;;-145.42;85.15
49367;BME280;35245;52.026;8.540;2023-02-10T11:19:56;50955.22;;;-145.42;88.42
49367;BME280;35245;52.026;8.540;2023-02-10T11:22:23;50988.91;;;-145.42;87.27
49367;BME280;35245;52.026;8.540;2023-02-10T11:24:53;50979.00;;;-145.42;87.33
49367;BME280;35245;52.026;8.540;2023-02-10T11:27:23;50975.03;;;-145.42;85.37
49367;BME280;35245;52.026;8.540;2023-02-10T11:29:53;50975.03;;;-145.42;86.14
49367;BME280;35245;52.026;8.540;2023-02-10T11:32:23;50963.13;;;-145.42;88.50
49367;BME280;35245;52.026;8.540;2023-02-10T11:34:53;50979.00;;;-145.42;85.57
49367;BME280;35245;52.026;8.540;2023-02-10T11:37:26;50955.22;;;-145.42;82.11
49367;BME280;35245;52.026;8.540;2023-02-10T11:39:54;50986.91;;;-145.42;79.37
49367;BME280;35245;52.026;8.540;2023-02-10T11:42:26;50967.09;;;-145.42;80.85
49367;BME280;35245;52.026;8.540;2023-02-10T11:44:57;51004.75;;;-145.42;79.57
49367;BME280;35245;52.026;8.540;2023-02-10T11:47:27;50975.03;;;-145.42;80.15
49367;BME280;35245;52.026;8.540;2023-02-10T11:49:54;50973.03;;;-145.42;79.48
49367;BME280;35245;52.026;8.540;2023-02-10T11:52:25;50977.00;;;-145.42;79.30
49367;BME280;35245;52.026;8.540;2023-02-10T11:54:54;50977.00;;;-145.42;77.13
49367;BME280;35245;52.026;8.540;2023-02-10T11:57:47;50917.53;;;-145.42;76.58
49367;BME280;35245;52.026;8.540;2023-02-10T12:00:41;50973.03;;;-145.42;75.00
49367;BME280;35245;52.026;8.540;2023-02-10T12:03:46;51008.72;;;-145.42;75.70
49367;BME280;35245;52.026;8.540;2023-02-10T12:06:27;50982.97;;;-145.42;73.61
49367;BME280;35245;52.026;8.540;2023-02-10T12:09:02;50988.91;;;-145.42;74.06
49367;BME280;35245;52.026;8.540;2023-02-10T12:11:42;51002.78;;;-145.42;75.09
49367;BME280;35245;52.026;8.540;2023-02-10T12:14:36;50990.88;;;-145.42;71.81
49367;BME280;35245;52.026;8.540;2023-02-10T12:17:24;50973.03;;;-145.42;74.88
49367;BME280;35245;52.026;8.540;2023-02-10T12:20:18;50996.84;;;-145.42;73.49
49367;BME280;35245;52.026;8.540;2023-02-10T12:23:34;50951.25;;;-145.42;73.10
49367;BME280;35245;52.026;8.540;2023-02-10T12:26:10;51000.78;;;-145.42;70.65
49367;BME280;35245;52.026;8.540;2023-02-10T12:28:59;50998.81;;;-145.42;71.98
49367;BME280;35245;52.026;8.540;2023-02-10T12:31:45;50969.06;;;-145.42;73.07
49367;BME280;35245;52.026;8.540;2023-02-10T12:34:34;50984.94;;;-145.42;72.41
49367;BME280;35245;52.026;8.540;2023-02-10T12:37:19;50980.97;;;-145.42;73.36
49367;BME280;35245;52.026;8.540;2023-02-10T12:39:58;51000.78;;;-145.42;74.63
49367;BME280;35245;52.026;8.540;2023-02-10T12:42:40;50996.84;;;-145.42;72.47
49367;BME280;35245;52.026;8.540;2023-02-10T12:45:19;50992.88;;;-145.42;70.46
49367;BME280;35245;52.026;8.540;2023-02-10T12:48:00;50939.34;;;-145.42;69.40
49367;BME280;35245;52.026;8.540;2023-02-10T12:50:46;50947.28;;;-145.42;60.33
49367;BME280;35245;52.026;8.540;2023-02-10T12:53:18;50955.22;;;-145.42;60.51
49367;BME280;35245;52.026;8.540;2023-02-10T12:55:51;50953.22;;;-145.42;58.51
49367;BME280;35245;52.026;8.540;2023-02-10T12:58:25;50963.13;;;-145.42;55.62
49367;BME280;35245;52.026;8.540;2023-02-10T13:01:05;51022.59;;;-145.42;54.41
49367;BME280;35245;52.026;8.540;2023-02-10T13:03:39;50963.13;;;-145.42;59.47
49367;BME280;35245;52.026;8.540;2023-02-10T13:06:21;50971.06;;;-145.42;57.75